Time;durP1;ratioP1;P1;durP2;ratioP2;P2;SDS_P1;SDS_P2;PMS_P1;PMS_P2;Temp;Humidity;BMP_temperature;BMP_pressure;BME280_temperature;BME280_humidity;BME280_pressure;Samples;Min_cycle;Max_cycle;Signal;HPM_P1;HPM_P2
2023/11/01 00:03:28;;;;;;;;;;;11.80;99.90;;;;;;8351696;28;19978;-70
2023/11/01 00:07:29;;;;;;;;;;;11.70;99.90;;;;;;8334982;28;19971;-70
2023/11/01 00:11:31;;;;;;;;;;;11.80;99.90;;;;;;8350166;28;19929;-70
2023/11/01 00:15:33;;;;;;;;;;;11.80;99.90;;;;;;8354127;28;19928;-70
2023/11/01 00:19:34;;;;;;;;;;;11.80;99.90;;;;;;8354579;28;20007;-70
2023/11/01 00:23:36;;;;;;;;;;;11.80;99.90;;;;;;8361065;28;19948;-70
2023/11/01 00:27:38;;;;;;;;;;;11.80;99.90;;;;;;8359983;28;20035;-70
2023/11/01 00:31:39;;;;;;;;;;;11.80;99.90;;;;;;8358875;28;20699;-70
2023/11/01 00:35:41;;;;;;;;;;;11.90;99.90;;;;;;8361550;28;19924;-70
2023/11/01 00:39:43;;;;;;;;;;;11.80;99.90;;;;;;8359408;28;19932;-70
2023/11/01 00:43:44;;;;;;;;;;;11.80;99.90;;;;;;8365518;28;19924;-70
2023/11/01 00:47:46;;;;;;;;;;;11.80;99.90;;;;;;8358415;28;20935;-70
2023/11/01 00:51:48;;;;;;;;;;;11.80;99.90;;;;;;8360094;28;19925;-70
2023/11/01 00:55:49;;;;;;;;;;;11.90;99.90;;;;;;8358776;28;19971;-70
2023/11/01 00:59:52;;;;;;;;;;;11.90;99.90;;;;;;8333836;28;19929;-70
2023/11/01 01:03:54;;;;;;;;;;;11.90;99.90;;;;;;8360575;28;19929;-70
2023/11/01 01:07:56;;;;;;;;;;;11.90;99.90;;;;;;8354976;28;19929;-70
2023/11/01 01:11:58;;;;;;;;;;;11.80;99.90;;;;;;8356497;28;19925;-70
2023/11/01 01:15:59;;;;;;;;;;;11.80;99.90;;;;;;8360757;28;21366;-70
2023/11/01 01:20:01;;;;;;;;;;;11.90;99.90;;;;;;8359277;28;19937;-70
2023/11/01 01:24:03;;;;;;;;;;;11.80;99.90;;;;;;8359741;28;19925;-70
2023/11/01 01:28:05;;;;;;;;;;;11.90;99.90;;;;;;8338897;28;19933;-70
2023/11/01 01:32:07;;;;;;;;;;;11.80;99.90;;;;;;8357581;28;19933;-70
2023/11/01 01:36:08;;;;;;;;;;;11.80;99.90;;;;;;8337692;28;20027;-70
2023/11/01 01:40:10;;;;;;;;;;;11.80;99.90;;;;;;8357521;28;19940;-70
2023/11/01 01:44:12;;;;;;;;;;;11.80;99.90;;;;;;8358471;28;20690;-70
2023/11/01 01:48:14;;;;;;;;;;;11.80;99.90;;;;;;8340020;28;20502;-70
2023/11/01 01:52:17;;;;;;;;;;;11.80;99.90;;;;;;8358174;28;20344;-70
2023/11/01 01:56:19;;;;;;;;;;;11.80;99.90;;;;;;8356589;28;19932;-70
2023/11/01 02:00:21;;;;;;;;;;;11.80;99.90;;;;;;8339485;28;19975;-70
2023/11/01 02:04:22;;;;;;;;;;;11.80;99.90;;;;;;8355338;28;19924;-70
2023/11/01 02:08:26;;;;;;;;;;;11.80;99.90;;;;;;8353344;28;20398;-70
2023/11/01 02:12:27;;;;;;;;;;;11.80;99.90;;;;;;8352743;28;19932;-70
2023/11/01 02:16:29;;;;;;;;;;;11.80;99.90;;;;;;8353765;28;19925;-70
2023/11/01 02:20:35;;;;;;;;;;;11.70;99.90;;;;;;8356724;28;19936;-70
2023/11/01 02:24:36;;;;;;;;;;;11.70;99.90;;;;;;8356737;28;19951;-70
2023/11/01 02:28:38;;;;;;;;;;;11.70;99.90;;;;;;8335221;28;19961;-70
2023/11/01 02:32:40;;;;;;;;;;;11.70;99.90;;;;;;8336564;28;19931;-70
2023/11/01 02:36:41;;;;;;;;;;;11.70;99.90;;;;;;8353651;28;19939;-70
2023/11/01 02:40:43;;;;;;;;;;;11.80;99.90;;;;;;8355504;28;19932;-70
2023/11/01 02:44:44;;;;;;;;;;;11.80;99.90;;;;;;8356268;28;19959;-70
2023/11/01 02:48:46;;;;;;;;;;;11.80;99.90;;;;;;8354821;28;19932;-71
2023/11/01 02:52:48;;;;;;;;;;;11.80;99.90;;;;;;8355763;28;19929;-70
2023/11/01 02:56:49;;;;;;;;;;;11.80;99.90;;;;;;8357038;28;19929;-70
2023/11/01 03:00:51;;;;;;;;;;;11.90;99.90;;;;;;8351213;28;19933;-70
2023/11/01 03:04:52;;;;;;;;;;;11.90;99.90;;;;;;8357725;28;19970;-70
2023/11/01 03:08:54;;;;;;;;;;;11.90;99.90;;;;;;8330417;28;19925;-70
2023/11/01 03:12:56;;;;;;;;;;;11.90;99.90;;;;;;8353595;28;19967;-70
2023/11/01 03:16:57;;;;;;;;;;;11.80;99.90;;;;;;8355266;28;19925;-70
2023/11/01 03:20:59;;;;;;;;;;;11.90;99.90;;;;;;8354297;28;20308;-70
2023/11/01 03:25:01;;;;;;;;;;;11.90;99.90;;;;;;8353120;28;19936;-71
2023/11/01 03:29:03;;;;;;;;;;;11.90;99.90;;;;;;8354509;28;20613;-70
2023/11/01 03:33:04;;;;;;;;;;;11.90;99.90;;;;;;8353096;28;19925;-70
2023/11/01 03:37:06;;;;;;;;;;;11.90;99.90;;;;;;8351904;28;19936;-70
2023/11/01 03:41:08;;;;;;;;;;;11.90;99.90;;;;;;8355206;28;20003;-70
2023/11/01 03:45:09;;;;;;;;;;;11.90;99.90;;;;;;8353324;28;19933;-70
2023/11/01 03:49:11;;;;;;;;;;;11.90;99.90;;;;;;8355130;28;19925;-71
2023/11/01 03:53:13;;;;;;;;;;;12.00;99.90;;;;;;8355399;28;19928;-70
2023/11/01 03:57:14;;;;;;;;;;;12.00;99.90;;;;;;8332789;28;19960;-70
2023/11/01 04:01:16;;;;;;;;;;;11.90;99.90;;;;;;8354950;28;19931;-70
2023/11/01 04:05:18;;;;;;;;;;;12.00;99.90;;;;;;8353019;28;19924;-71
2023/11/01 04:09:19;;;;;;;;;;;11.90;99.90;;;;;;8345610;28;19972;-70
2023/11/01 04:13:21;;;;;;;;;;;12.00;99.90;;;;;;8351983;28;19928;-71
2023/11/01 04:17:23;;;;;;;;;;;12.00;99.90;;;;;;8331237;28;20034;-71
2023/11/01 04:21:24;;;;;;;;;;;12.00;99.90;;;;;;8353932;28;19937;-70
2023/11/01 04:25:27;;;;;;;;;;;12.00;99.90;;;;;;8352846;28;20366;-70
2023/11/01 04:29:29;;;;;;;;;;;12.00;99.90;;;;;;8352659;28;20234;-70
2023/11/01 04:33:31;;;;;;;;;;;12.00;99.90;;;;;;8353089;28;20335;-70
2023/11/01 04:37:34;;;;;;;;;;;12.00;99.90;;;;;;8349990;28;19924;-70
2023/11/01 04:41:36;;;;;;;;;;;12.00;99.90;;;;;;8350073;28;19933;-71
2023/11/01 04:45:38;;;;;;;;;;;12.00;99.90;;;;;;8351111;28;19947;-70
2023/11/01 04:49:40;;;;;;;;;;;12.00;99.90;;;;;;8348704;28;19971;-70
2023/11/01 04:53:41;;;;;;;;;;;12.00;99.90;;;;;;8348863;28;19936;-70
2023/11/01 04:57:43;;;;;;;;;;;12.00;99.90;;;;;;8353468;28;19976;-70
2023/11/01 05:01:47;;;;;;;;;;;12.00;99.90;;;;;;8354339;28;19924;-70
2023/11/01 05:05:49;;;;;;;;;;;12.00;99.90;;;;;;8337036;28;19931;-70
2023/11/01 05:09:50;;;;;;;;;;;12.00;99.90;;;;;;8353055;28;19962;-70
2023/11/01 05:13:52;;;;;;;;;;;12.00;99.90;;;;;;8355241;28;20248;-70
2023/11/01 05:17:53;;;;;;;;;;;12.00;99.90;;;;;;8355224;28;19944;-70
2023/11/01 05:21:55;;;;;;;;;;;12.10;99.90;;;;;;8343169;28;20012;-70
2023/11/01 05:25:57;;;;;;;;;;;12.10;99.90;;;;;;8352121;28;19956;-70
2023/11/01 05:29:59;;;;;;;;;;;12.10;99.90;;;;;;8350631;28;19969;-70
2023/11/01 05:34:01;;;;;;;;;;;12.10;99.90;;;;;;8348635;28;19935;-70
2023/11/01 05:38:03;;;;;;;;;;;12.20;99.90;;;;;;8337201;28;19971;-70
2023/11/01 05:42:05;;;;;;;;;;;12.20;99.90;;;;;;8358340;28;19925;-70
2023/11/01 05:46:07;;;;;;;;;;;12.20;99.90;;;;;;8358132;28;19929;-70
2023/11/01 05:50:12;;;;;;;;;;;12.20;99.90;;;;;;8358451;28;20331;-70
2023/11/01 05:54:13;;;;;;;;;;;12.30;99.90;;;;;;8358167;28;19925;-70
2023/11/01 05:58:15;;;;;;;;;;;12.30;99.90;;;;;;8356210;28;19932;-70
2023/11/01 06:02:17;;;;;;;;;;;12.30;99.90;;;;;;8355129;28;19977;-70
2023/11/01 06:06:19;;;;;;;;;;;12.30;99.90;;;;;;8356960;28;20187;-71
2023/11/01 06:10:21;;;;;;;;;;;12.30;99.90;;;;;;8347613;28;20365;-71
2023/11/01 06:14:22;;;;;;;;;;;12.40;99.90;;;;;;8346575;28;20380;-70
2023/11/01 06:18:24;;;;;;;;;;;12.40;99.90;;;;;;8353288;28;19971;-70
2023/11/01 06:22:26;;;;;;;;;;;12.40;99.90;;;;;;8356153;28;19925;-70
2023/11/01 06:26:27;;;;;;;;;;;12.40;99.90;;;;;;8354307;28;20557;-69
2023/11/01 06:30:29;;;;;;;;;;;12.40;99.90;;;;;;8357051;28;19932;-70
2023/11/01 06:34:31;;;;;;;;;;;12.50;99.90;;;;;;8361783;28;19940;-70
2023/11/01 06:38:32;;;;;;;;;;;12.50;99.90;;;;;;8354337;28;21081;-71
2023/11/01 06:42:34;;;;;;;;;;;12.60;99.90;;;;;;8355992;28;19928;-70
2023/11/01 06:46:36;;;;;;;;;;;12.60;99.90;;;;;;8349854;28;20011;-70
2023/11/01 06:50:40;;;;;;;;;;;12.60;99.90;;;;;;8352033;28;19935;-70
2023/11/01 06:54:43;;;;;;;;;;;12.60;99.90;;;;;;8359540;28;19975;-70
2023/11/01 06:58:44;;;;;;;;;;;12.60;99.90;;;;;;8353398;28;19933;-70
2023/11/01 07:02:46;;;;;;;;;;;12.70;99.90;;;;;;8336804;28;19924;-70
2023/11/01 07:06:48;;;;;;;;;;;12.70;99.90;;;;;;8344511;28;20017;-70
2023/11/01 07:10:49;;;;;;;;;;;12.70;99.90;;;;;;8343159;28;20327;-70
2023/11/01 07:14:51;;;;;;;;;;;12.70;99.90;;;;;;8345022;28;19945;-70
2023/11/01 07:18:53;;;;;;;;;;;12.70;99.90;;;;;;8348612;28;19925;-70
2023/11/01 07:22:55;;;;;;;;;;;12.70;99.90;;;;;;8350267;28;19931;-70
2023/11/01 07:26:56;;;;;;;;;;;12.70;99.90;;;;;;8347957;28;19959;-70
2023/11/01 07:30:58;;;;;;;;;;;12.80;99.90;;;;;;8356083;28;19971;-70
2023/11/01 07:35:02;;;;;;;;;;;12.80;99.90;;;;;;8355534;28;20463;-70
2023/11/01 07:39:04;;;;;;;;;;;12.80;99.90;;;;;;8357200;28;19932;-71
2023/11/01 07:43:05;;;;;;;;;;;12.80;99.90;;;;;;8356061;28;19994;-70
2023/11/01 07:47:07;;;;;;;;;;;12.90;99.90;;;;;;8353661;28;19928;-70
2023/11/01 07:51:08;;;;;;;;;;;12.90;99.90;;;;;;8357339;28;19970;-70
2023/11/01 07:55:10;;;;;;;;;;;12.90;99.90;;;;;;8342123;28;20043;-70
2023/11/01 07:59:12;;;;;;;;;;;12.90;99.90;;;;;;8353592;28;19925;-70
2023/11/01 08:03:13;;;;;;;;;;;13.00;99.90;;;;;;8355423;28;20380;-70
2023/11/01 08:07:15;;;;;;;;;;;13.00;99.90;;;;;;8358395;28;20308;-70
2023/11/01 08:11:17;;;;;;;;;;;13.00;99.90;;;;;;8341456;28;20481;-70
2023/11/01 08:15:18;;;;;;;;;;;13.00;99.90;;;;;;8348944;28;20002;-70
2023/11/01 08:19:20;;;;;;;;;;;13.10;99.90;;;;;;8353651;28;19933;-70
2023/11/01 08:23:22;;;;;;;;;;;13.10;99.90;;;;;;8353874;28;19956;-70
2023/11/01 08:27:23;;;;;;;;;;;13.10;99.90;;;;;;8331668;28;20378;-70
2023/11/01 08:31:25;;;;;;;;;;;13.20;99.90;;;;;;8355160;28;19925;-70
2023/11/01 08:35:27;;;;;;;;;;;13.10;99.90;;;;;;8352371;28;19947;-70
2023/11/01 08:39:28;;;;;;;;;;;13.20;99.90;;;;;;8355425;28;19968;-70
2023/11/01 08:43:31;;;;;;;;;;;13.20;99.90;;;;;;8361103;28;19951;-70
2023/11/01 08:47:33;;;;;;;;;;;13.20;99.90;;;;;;8358810;28;19925;-70
2023/11/01 08:51:38;;;;;;;;;;;13.20;99.90;;;;;;8359242;28;20334;-70
2023/11/01 08:55:39;;;;;;;;;;;13.20;99.90;;;;;;8354964;28;19935;-70
2023/11/01 08:59:42;;;;;;;;;;;13.20;99.90;;;;;;8358290;28;19924;-70
2023/11/01 09:03:43;;;;;;;;;;;13.20;99.90;;;;;;8361580;28;20002;-70
2023/11/01 09:07:45;;;;;;;;;;;13.30;99.90;;;;;;8355157;28;20390;-71
2023/11/01 09:11:49;;;;;;;;;;;13.30;99.90;;;;;;8354036;28;19929;-70
2023/11/01 09:15:51;;;;;;;;;;;13.40;99.90;;;;;;8357606;28;19980;-70
2023/11/01 09:19:52;;;;;;;;;;;13.40;99.90;;;;;;8357717;28;19932;-70
2023/11/01 09:23:54;;;;;;;;;;;13.40;99.90;;;;;;8358606;28;19928;-70
2023/11/01 09:27:56;;;;;;;;;;;13.50;99.90;;;;;;8356655;28;19933;-70
2023/11/01 09:31:57;;;;;;;;;;;13.50;99.90;;;;;;8357216;28;19925;-70
2023/11/01 09:35:59;;;;;;;;;;;13.50;99.90;;;;;;8361286;28;19932;-70
2023/11/01 09:40:00;;;;;;;;;;;13.50;99.90;;;;;;8358409;28;19994;-70
2023/11/01 09:44:02;;;;;;;;;;;13.60;99.90;;;;;;8339687;28;20569;-70
2023/11/01 09:48:04;;;;;;;;;;;13.60;99.90;;;;;;8340848;28;20277;-70
2023/11/01 09:52:07;;;;;;;;;;;13.60;99.90;;;;;;8353702;28;20016;-70
2023/11/01 09:56:09;;;;;;;;;;;13.70;99.90;;;;;;8344351;28;20392;-70
2023/11/01 10:00:11;;;;;;;;;;;13.70;99.90;;;;;;8355545;28;19932;-70
2023/11/01 10:04:13;;;;;;;;;;;13.80;99.90;;;;;;8358397;28;19936;-70
2023/11/01 10:08:15;;;;;;;;;;;13.80;99.90;;;;;;8355450;28;19929;-70
2023/11/01 10:12:17;;;;;;;;;;;13.90;99.90;;;;;;8354611;28;19956;-70
2023/11/01 10:16:19;;;;;;;;;;;13.90;99.90;;;;;;8358163;28;20339;-70
2023/11/01 10:20:22;;;;;;;;;;;14.00;99.90;;;;;;8331135;28;20456;-70
2023/11/01 10:24:25;;;;;;;;;;;14.00;99.90;;;;;;8325562;28;19929;-70
2023/11/01 10:28:27;;;;;;;;;;;14.00;99.90;;;;;;8327901;28;20341;-70
2023/11/01 10:32:28;;;;;;;;;;;13.90;99.90;;;;;;8328431;28;19964;-70
2023/11/01 10:36:30;;;;;;;;;;;14.00;99.90;;;;;;8329678;28;19935;-70
2023/11/01 10:40:32;;;;;;;;;;;14.00;99.90;;;;;;8342800;28;19928;-70
2023/11/01 10:44:34;;;;;;;;;;;14.00;99.90;;;;;;8324291;28;20387;-70
2023/11/01 10:48:37;;;;;;;;;;;14.10;99.90;;;;;;8327681;28;19931;-70
2023/11/01 10:52:39;;;;;;;;;;;14.10;99.90;;;;;;8316481;28;19935;-70
2023/11/01 10:56:41;;;;;;;;;;;14.10;99.90;;;;;;8344320;28;19929;-70
2023/11/01 11:00:46;;;;;;;;;;;14.10;99.90;;;;;;8331812;28;19951;-70
2023/11/01 11:05:03;;;;;;;;;;;14.10;99.90;;;;;;8324409;28;19929;-70
2023/11/01 11:09:18;;;;;;;;;;;14.20;99.90;;;;;;8323184;28;19925;-70
2023/11/01 11:13:20;;;;;;;;;;;14.20;99.90;;;;;;8322538;28;19929;-70
2023/11/01 11:17:23;;;;;;;;;;;14.20;99.90;;;;;;8324842;28;19933;-70
2023/11/01 11:21:52;;;;;;;;;;;14.20;99.90;;;;;;8324255;28;19926;-70
2023/11/01 11:25:54;;;;;;;;;;;14.20;99.90;;;;;;8321236;28;20297;-70
2023/11/01 11:29:55;;;;;;;;;;;14.20;99.90;;;;;;8322665;28;19933;-70
2023/11/01 11:33:57;;;;;;;;;;;14.30;99.90;;;;;;8325038;28;19937;-70
2023/11/01 11:37:59;;;;;;;;;;;14.30;99.90;;;;;;8324429;28;19936;-70
2023/11/01 11:42:01;;;;;;;;;;;14.40;99.90;;;;;;8323620;28;20040;-70
2023/11/01 11:46:21;;;;;;;;;;;14.40;99.90;;;;;;8322392;28;19929;-70
2023/11/01 11:50:23;;;;;;;;;;;14.40;99.90;;;;;;8322936;28;19925;-70
2023/11/01 11:54:26;;;;;;;;;;;14.50;99.90;;;;;;8322305;28;20376;-70
2023/11/01 11:58:27;;;;;;;;;;;14.60;99.90;;;;;;8321905;28;19968;-70
2023/11/01 12:02:30;;;;;;;;;;;14.70;99.90;;;;;;8323264;28;20393;-70
2023/11/01 12:06:58;;;;;;;;;;;14.70;99.90;;;;;;8321748;28;19925;-70
2023/11/01 12:11:00;;;;;;;;;;;14.80;99.90;;;;;;8320780;28;19933;-70
2023/11/01 12:15:03;;;;;;;;;;;14.90;99.90;;;;;;8322972;28;19971;-70
2023/11/01 12:19:06;;;;;;;;;;;14.90;99.90;;;;;;8323666;28;19929;-70
2023/11/01 12:23:08;;;;;;;;;;;14.90;99.90;;;;;;8321481;28;19931;-70
2023/11/01 12:27:13;;;;;;;;;;;14.90;99.90;;;;;;8320002;28;19932;-70
2023/11/01 12:31:15;;;;;;;;;;;15.00;99.90;;;;;;8322653;28;19988;-70
2023/11/01 12:35:17;;;;;;;;;;;15.10;99.90;;;;;;8323717;28;20376;-70
2023/11/01 12:39:19;;;;;;;;;;;15.20;99.90;;;;;;8321755;28;20364;-70
2023/11/01 12:43:22;;;;;;;;;;;15.20;99.90;;;;;;8323394;28;19929;-70
2023/11/01 12:47:24;;;;;;;;;;;15.30;99.90;;;;;;8320361;28;20021;-70
2023/11/01 12:51:25;;;;;;;;;;;15.30;99.90;;;;;;8324098;28;19929;-70
2023/11/01 12:55:28;;;;;;;;;;;15.20;99.90;;;;;;8319989;28;19932;-70
2023/11/01 12:59:29;;;;;;;;;;;15.30;99.90;;;;;;8323096;28;20399;-70
2023/11/01 13:03:31;;;;;;;;;;;15.30;99.90;;;;;;8321839;28;19926;-70
2023/11/01 13:07:34;;;;;;;;;;;15.50;99.90;;;;;;8323830;28;19929;-70
2023/11/01 13:11:36;;;;;;;;;;;15.70;99.90;;;;;;8323378;28;20346;-70
2023/11/01 13:15:37;;;;;;;;;;;15.80;99.90;;;;;;8319928;28;20003;-70
2023/11/01 13:19:41;;;;;;;;;;;15.90;99.90;;;;;;8337429;28;19936;-70
2023/11/01 13:23:42;;;;;;;;;;;15.90;99.90;;;;;;8320388;28;19926;-70
2023/11/01 13:27:44;;;;;;;;;;;15.90;99.90;;;;;;8323484;28;20357;-70
2023/11/01 13:31:46;;;;;;;;;;;15.90;99.90;;;;;;8327255;28;20344;-70
2023/11/01 13:35:47;;;;;;;;;;;15.90;99.90;;;;;;8342209;28;19936;-70
2023/11/01 13:39:49;;;;;;;;;;;15.70;99.90;;;;;;8326831;28;19925;-70
2023/11/01 13:59:01;;;;;;;;;;;15.40;99.90;;;;;;8324903;28;19924;-70
2023/11/01 14:03:04;;;;;;;;;;;15.30;99.90;;;;;;8326978;28;19932;-69
2023/11/01 14:07:06;;;;;;;;;;;15.30;99.90;;;;;;8324956;28;20351;-70
2023/11/01 14:11:07;;;;;;;;;;;15.20;99.90;;;;;;8325998;28;19925;-70
2023/11/01 14:15:09;;;;;;;;;;;15.20;99.90;;;;;;8308052;28;19932;-70
2023/11/01 14:19:11;;;;;;;;;;;15.20;99.90;;;;;;8325250;28;19931;-70
2023/11/01 14:23:13;;;;;;;;;;;15.20;99.90;;;;;;8341408;28;19940;-70
2023/11/01 14:27:14;;;;;;;;;;;15.20;99.90;;;;;;8324844;28;19991;-70
2023/11/01 14:31:17;;;;;;;;;;;15.10;99.90;;;;;;8325242;28;19929;-70
2023/11/01 14:35:19;;;;;;;;;;;15.10;99.90;;;;;;8325656;28;20418;-70
2023/11/01 14:39:22;;;;;;;;;;;15.10;99.90;;;;;;8323006;28;20221;-70
2023/11/01 14:43:25;;;;;;;;;;;15.00;99.90;;;;;;8324282;28;19929;-70
2023/11/01 14:47:27;;;;;;;;;;;15.00;99.90;;;;;;8324472;28;19964;-70
2023/11/01 14:51:29;;;;;;;;;;;14.90;99.90;;;;;;8325183;28;19937;-70
2023/11/01 14:55:30;;;;;;;;;;;14.90;99.90;;;;;;8323875;28;20391;-70
2023/11/01 14:59:32;;;;;;;;;;;14.70;99.90;;;;;;8324989;28;19933;-70
2023/11/01 15:03:33;;;;;;;;;;;14.60;99.90;;;;;;8325456;28;20416;-70
2023/11/01 15:07:35;;;;;;;;;;;14.40;99.90;;;;;;8322395;28;20373;-70
2023/11/01 15:11:37;;;;;;;;;;;14.30;99.90;;;;;;8321899;28;20281;-70
2023/11/01 15:15:38;;;;;;;;;;;14.20;99.90;;;;;;8321262;28;19925;-70
2023/11/01 15:19:44;;;;;;;;;;;14.20;99.90;;;;;;8325621;28;19929;-70
2023/11/01 15:23:46;;;;;;;;;;;14.10;99.90;;;;;;8325609;28;19925;-70
2023/11/01 15:27:48;;;;;;;;;;;14.10;99.90;;;;;;8325184;28;19926;-70
2023/11/01 15:31:52;;;;;;;;;;;14.10;99.90;;;;;;8324261;28;20299;-70
2023/11/01 15:35:54;;;;;;;;;;;14.00;99.90;;;;;;8323149;28;19952;-70
2023/11/01 15:39:55;;;;;;;;;;;14.00;99.90;;;;;;8324940;28;19929;-70
2023/11/01 15:43:57;;;;;;;;;;;13.90;99.90;;;;;;8322291;28;19929;-70
2023/11/01 15:47:59;;;;;;;;;;;13.80;99.90;;;;;;8321366;28;19929;-70
2023/11/01 15:52:00;;;;;;;;;;;13.60;99.90;;;;;;8321760;28;20044;-70
2023/11/01 15:56:04;;;;;;;;;;;13.50;99.90;;;;;;8322621;28;19956;-70
2023/11/01 16:00:06;;;;;;;;;;;13.40;99.90;;;;;;8334257;28;19979;-70
2023/11/01 16:04:08;;;;;;;;;;;13.40;99.90;;;;;;8335766;28;19939;-70
2023/11/01 16:08:10;;;;;;;;;;;13.40;99.90;;;;;;8321368;28;19932;-70
2023/11/01 16:12:12;;;;;;;;;;;13.40;99.90;;;;;;8321720;28;19971;-70
2023/11/01 16:16:14;;;;;;;;;;;13.40;99.90;;;;;;8319257;28;19987;-70
2023/11/01 16:20:15;;;;;;;;;;;13.30;99.90;;;;;;8323812;28;19932;-69
2023/11/01 16:24:17;;;;;;;;;;;13.30;99.90;;;;;;8338211;28;19964;-70
2023/11/01 16:28:19;;;;;;;;;;;13.30;99.90;;;;;;8323475;28;19925;-70
2023/11/01 16:32:20;;;;;;;;;;;13.30;99.90;;;;;;8321594;28;19932;-70
2023/11/01 16:36:22;;;;;;;;;;;13.30;99.90;;;;;;8324739;28;20404;-70
2023/11/01 16:40:24;;;;;;;;;;;13.30;99.90;;;;;;8325077;28;19933;-70
2023/11/01 16:44:25;;;;;;;;;;;13.30;99.90;;;;;;8326945;28;19956;-70
2023/11/01 16:48:27;;;;;;;;;;;13.30;99.90;;;;;;8324375;28;19991;-70
2023/11/01 16:52:29;;;;;;;;;;;13.30;99.90;;;;;;8324954;28;19929;-70
2023/11/01 16:56:31;;;;;;;;;;;13.30;99.90;;;;;;8322547;28;19932;-70
2023/11/01 17:00:33;;;;;;;;;;;13.30;99.90;;;;;;8308535;28;19960;-70
2023/11/01 17:04:35;;;;;;;;;;;13.30;99.90;;;;;;8315689;28;19924;-70
2023/11/01 17:08:38;;;;;;;;;;;13.20;99.90;;;;;;8311891;28;19925;-69
2023/11/01 17:12:40;;;;;;;;;;;13.10;99.90;;;;;;8331397;28;20336;-70
2023/11/01 17:16:41;;;;;;;;;;;13.00;99.90;;;;;;8326382;28;21048;-70
2023/11/01 17:20:43;;;;;;;;;;;13.00;99.90;;;;;;8331645;28;20048;-70
2023/11/01 17:24:45;;;;;;;;;;;13.00;99.90;;;;;;8326889;28;19929;-70
2023/11/01 17:28:46;;;;;;;;;;;13.00;99.90;;;;;;8323426;28;19925;-70
2023/11/01 17:32:48;;;;;;;;;;;12.90;99.90;;;;;;8329631;28;19925;-70
2023/11/01 17:36:51;;;;;;;;;;;12.80;99.90;;;;;;8327214;28;20395;-70
2023/11/01 17:40:53;;;;;;;;;;;12.80;99.90;;;;;;8333742;28;20289;-70
2023/11/01 17:44:55;;;;;;;;;;;12.70;99.90;;;;;;8330547;28;19925;-70
2023/11/01 17:48:56;;;;;;;;;;;12.70;99.90;;;;;;8326713;28;19940;-70
2023/11/01 17:53:02;;;;;;;;;;;12.60;99.90;;;;;;8329126;28;19947;-69
2023/11/01 17:57:05;;;;;;;;;;;12.60;99.90;;;;;;8330168;28;19935;-70
2023/11/01 18:01:06;;;;;;;;;;;12.50;99.90;;;;;;8325186;28;20023;-70
2023/11/01 18:05:24;;;;;;;;;;;12.50;99.90;;;;;;8325929;28;19928;-70
2023/11/01 18:09:25;;;;;;;;;;;12.50;99.90;;;;;;8328480;28;19943;-70
2023/11/01 18:13:28;;;;;;;;;;;12.50;99.90;;;;;;8329550;28;19978;-69
2023/11/01 18:17:31;;;;;;;;;;;12.50;99.90;;;;;;8327009;28;19964;-70
2023/11/01 18:21:33;;;;;;;;;;;12.40;99.90;;;;;;8328276;28;20418;-70
2023/11/01 18:25:46;;;;;;;;;;;12.40;99.90;;;;;;8310156;28;19939;-69
2023/11/01 18:29:48;;;;;;;;;;;12.40;99.90;;;;;;8327015;28;19925;-70
2023/11/01 18:33:51;;;;;;;;;;;12.30;99.90;;;;;;8329226;28;19983;-70
2023/11/01 18:37:53;;;;;;;;;;;12.30;99.90;;;;;;8323929;28;19943;-70
2023/11/01 18:41:55;;;;;;;;;;;12.30;99.90;;;;;;8331458;28;20032;-70
2023/11/01 18:45:57;;;;;;;;;;;12.30;99.90;;;;;;8330641;28;20048;-70
2023/11/01 18:49:59;;;;;;;;;;;12.30;99.90;;;;;;8332755;28;19932;-69
2023/11/01 18:54:01;;;;;;;;;;;12.30;99.90;;;;;;8328131;28;19929;-70
2023/11/01 18:58:03;;;;;;;;;;;12.20;99.90;;;;;;8327604;28;23718;-70
2023/11/01 19:02:07;;;;;;;;;;;12.10;99.90;;;;;;8323748;28;20296;-70
2023/11/01 19:10:54;;;;;;;;;;;12.10;99.90;;;;;;8328758;28;20296;-70
2023/11/01 19:14:56;;;;;;;;;;;12.00;99.90;;;;;;8329501;28;19933;-70
2023/11/01 19:18:58;;;;;;;;;;;12.00;99.90;;;;;;8328794;28;20024;-70
2023/11/01 19:23:00;;;;;;;;;;;11.90;99.90;;;;;;8328306;28;19979;-70
2023/11/01 19:27:02;;;;;;;;;;;11.90;99.90;;;;;;8326514;28;19929;-70
2023/11/01 19:31:13;;;;;;;;;;;11.90;99.90;;;;;;8328760;28;20035;-70
2023/11/01 19:35:14;;;;;;;;;;;11.90;99.90;;;;;;8323933;28;19925;-70
2023/11/01 19:39:16;;;;;;;;;;;11.90;99.90;;;;;;8323700;28;20211;-70
2023/11/01 19:43:18;;;;;;;;;;;11.90;99.90;;;;;;8326231;28;19924;-70
2023/11/01 19:47:19;;;;;;;;;;;11.90;99.90;;;;;;8326248;28;20024;-70
2023/11/01 19:51:21;;;;;;;;;;;11.90;99.90;;;;;;8327564;28;19936;-70
2023/11/01 19:55:23;;;;;;;;;;;11.80;99.90;;;;;;8323461;28;19925;-69
2023/11/01 19:59:24;;;;;;;;;;;11.80;99.90;;;;;;8328837;28;19933;-70
2023/11/01 20:03:26;;;;;;;;;;;11.80;99.90;;;;;;8325248;28;19933;-70
2023/11/01 20:07:28;;;;;;;;;;;11.80;99.90;;;;;;8326984;28;20554;-69
2023/11/01 20:11:29;;;;;;;;;;;11.70;99.90;;;;;;8324376;28;20025;-69
2023/11/01 20:15:31;;;;;;;;;;;11.70;99.90;;;;;;8323478;28;19933;-70
2023/11/01 20:19:32;;;;;;;;;;;11.70;99.90;;;;;;8324909;28;19972;-70
2023/11/01 20:23:34;;;;;;;;;;;11.60;99.90;;;;;;8325439;28;20418;-70
2023/11/01 20:27:36;;;;;;;;;;;11.60;99.90;;;;;;8322967;28;19979;-70
2023/11/01 20:31:37;;;;;;;;;;;11.60;99.90;;;;;;8327333;28;19951;-70
2023/11/01 20:35:39;;;;;;;;;;;11.60;99.90;;;;;;8324268;28;19924;-70
2023/11/01 20:39:41;;;;;;;;;;;11.60;99.90;;;;;;8330539;28;19925;-70
2023/11/01 20:43:43;;;;;;;;;;;11.60;99.90;;;;;;8327816;28;19960;-70
2023/11/01 20:58:28;;;;;;;;;;;11.50;99.90;;;;;;8328240;28;19940;-69
2023/11/01 21:02:30;;;;;;;;;;;11.40;99.90;;;;;;8326934;28;19932;-70
2023/11/01 21:06:32;;;;;;;;;;;11.40;99.90;;;;;;8326954;28;19931;-70
2023/11/01 21:10:34;;;;;;;;;;;11.40;99.90;;;;;;8330103;28;19925;-69
2023/11/01 21:14:36;;;;;;;;;;;11.40;99.90;;;;;;8309312;28;19929;-70
2023/11/01 21:18:38;;;;;;;;;;;11.40;99.90;;;;;;8327066;28;19925;-70
2023/11/01 21:22:40;;;;;;;;;;;11.40;99.90;;;;;;8327314;28;19925;-70
2023/11/01 21:26:42;;;;;;;;;;;11.40;99.90;;;;;;8328964;28;19932;-69
2023/11/01 21:30:44;;;;;;;;;;;11.40;99.90;;;;;;8325407;28;19925;-70
2023/11/01 21:34:45;;;;;;;;;;;11.30;99.90;;;;;;8326817;28;19976;-70
2023/11/01 21:38:50;;;;;;;;;;;11.30;99.90;;;;;;8327122;28;19929;-70
2023/11/01 21:42:55;;;;;;;;;;;11.30;99.90;;;;;;8329269;28;19931;-70
2023/11/01 21:46:57;;;;;;;;;;;11.30;99.90;;;;;;8325733;28;19971;-70
2023/11/01 21:51:00;;;;;;;;;;;11.30;99.90;;;;;;8327469;28;19979;-70
2023/11/01 21:55:07;;;;;;;;;;;11.20;99.90;;;;;;8323833;28;19925;-70
2023/11/01 21:59:09;;;;;;;;;;;11.20;99.90;;;;;;8326342;28;20431;-70
2023/11/01 22:03:11;;;;;;;;;;;11.10;99.90;;;;;;8345005;28;19959;-70
2023/11/01 22:07:15;;;;;;;;;;;11.10;99.90;;;;;;8356205;28;19975;-70
2023/11/01 22:11:18;;;;;;;;;;;11.10;99.90;;;;;;8351332;28;19931;-70
2023/11/01 22:15:22;;;;;;;;;;;11.10;99.90;;;;;;8354874;28;19929;-70
2023/11/01 22:19:32;;;;;;;;;;;11.10;99.90;;;;;;8358164;28;19925;-70
2023/11/01 22:23:34;;;;;;;;;;;11.10;99.90;;;;;;8336099;28;20386;-70
2023/11/01 22:27:43;;;;;;;;;;;11.10;99.90;;;;;;8353765;28;19932;-70
2023/11/01 22:31:50;;;;;;;;;;;11.10;99.90;;;;;;8356471;28;19929;-70
2023/11/01 22:35:52;;;;;;;;;;;11.10;99.90;;;;;;8351656;28;19928;-70
2023/11/01 22:39:55;;;;;;;;;;;11.00;99.90;;;;;;8370950;28;19925;-70
2023/11/01 22:43:56;;;;;;;;;;;11.00;99.90;;;;;;8354685;28;19925;-70
2023/11/01 22:47:58;;;;;;;;;;;11.00;99.90;;;;;;8356392;28;19924;-70
2023/11/01 22:52:00;;;;;;;;;;;11.00;99.90;;;;;;8358937;28;19925;-70
2023/11/01 22:56:03;;;;;;;;;;;11.00;99.90;;;;;;8354496;28;19924;-70
2023/11/01 23:00:11;;;;;;;;;;;11.00;99.90;;;;;;8355343;28;19925;-70
2023/11/01 23:04:13;;;;;;;;;;;10.90;99.90;;;;;;8354999;28;19925;-70
2023/11/01 23:08:15;;;;;;;;;;;10.90;99.90;;;;;;8351597;28;19933;-70
2023/11/01 23:12:16;;;;;;;;;;;10.90;99.90;;;;;;8345944;28;19924;-70
2023/11/01 23:16:18;;;;;;;;;;;10.90;99.90;;;;;;8354514;28;19925;-70
2023/11/01 23:20:21;;;;;;;;;;;10.80;99.90;;;;;;8354832;28;19924;-70
2023/11/01 23:24:23;;;;;;;;;;;10.80;99.90;;;;;;8349195;28;20348;-70
2023/11/01 23:28:37;;;;;;;;;;;10.80;99.90;;;;;;8356881;28;19940;-70
2023/11/01 23:32:39;;;;;;;;;;;10.80;99.90;;;;;;8353632;28;19936;-70
2023/11/01 23:36:41;;;;;;;;;;;10.80;99.90;;;;;;8352095;28;20438;-70
2023/11/01 23:40:43;;;;;;;;;;;10.80;99.90;;;;;;8354700;28;19924;-70
2023/11/01 23:44:46;;;;;;;;;;;10.80;99.90;;;;;;8354570;28;19935;-70
2023/11/01 23:48:50;;;;;;;;;;;10.80;99.90;;;;;;8355809;28;19924;-70
2023/11/01 23:52:51;;;;;;;;;;;10.80;99.90;;;;;;8346058;28;20296;-70
2023/11/01 23:56:53;;;;;;;;;;;10.80;99.90;;;;;;8343280;28;20455;-70
